EDT,Max TemperatureF,Mean TemperatureF,Min TemperatureF,Max Dew PointF,MeanDew PointF,Min DewpointF,Max Humidity, Mean Humidity, Min Humidity, Max Sea Level PressureIn, Mean Sea Level PressureIn, Min Sea Level PressureIn, Max VisibilityMiles, Mean VisibilityMiles, Min VisibilityMiles, Max Wind SpeedMPH, Mean Wind SpeedMPH, Max Gust SpeedMPH,PrecipitationIn, CloudCover, Events, WindDirDegrees
2013-7-1,84,78,73,75,74,72,94,87,74,30.05,29.96,29.89,10,9,0,15,8,24,1.91,5,,186
2013-7-2,87,80,73,75,73,72,94,86,62,30.23,30.15,30.05,10,10,0,15,7,20,0.77,5,,183
2013-7-3,91,83,75,79,74,73,94,85,59,30.28,30.24,30.21,10,10,0,16,6,22,0.18,4,,179
2013-7-4,93,84,75,75,72,70,94,72,49,30.32,30.27,30.22,10,10,10,13,6,18,0.00,2,,193
2013-7-5,91,83,75,75,73,72,94,73,52,30.30,30.25,30.18,10,10,10,9,5,,0.00,2,,212
2013-7-6,91,83,75,75,72,70,94,70,49,30.25,30.20,30.13,10,10,10,12,5,17,0.00,1,,224
2013-7-7,91,83,75,73,73,72,89,71,52,30.18,30.13,30.05,10,10,10,14,5,17,0.00,1,,231
2013-7-8,89,82,75,75,73,72,94,76,58,30.17,30.12,30.09,10,10,4,12,5,16,0.01,3,,248
2013-7-9,91,83,75,77,74,72,94,80,59,30.15,30.11,30.06,10,10,0,9,5,,0.24,2,,208
2013-7-10,91,84,77,75,74,72,89,75,59,30.09,30.01,29.93,10,9,5,12,7,17,0.00,4,,219
2013-7-11,82,78,73,77,74,72,94,87,74,29.98,29.93,29.90,10,8,1,10,4,,0.17,5,,225
2013-7-12,80,76,71,75,72,72,100,90,78,30.05,29.95,29.90,10,8,0,7,1,,1.09,5,,347
2013-7-13,89,80,71,79,74,70,100,84,62,30.27,30.15,30.03,10,8,1,10,2,16,0.14,3,,151
2013-7-14,91,83,75,77,74,70,94,80,52,30.35,30.31,30.26,10,9,3,8,3,,0.00,1,,132
2013-7-15,93,83,73,75,74,72,100,77,49,30.34,30.29,30.23,10,9,3,7,2,,0.00,2,,234
2013-7-16,96,86,77,81,75,73,89,75,53,30.24,30.21,30.16,10,10,10,7,4,,0.00,0,,303
2013-7-17,96,84,73,77,74,72,94,75,47,30.21,30.17,30.12,10,10,5,6,1,,0.00,1,,2
2013-7-18,96,86,75,79,76,72,100,76,44,30.15,30.10,30.04,10,8,2,8,1,,0.00,0,,173
2013-7-19,95,86,78,79,76,73,89,71,56,30.08,30.02,29.95,10,10,5,12,5,17,0.00,1,,225
2013-7-20,93,86,78,77,74,72,83,70,56,29.99,29.94,29.89,10,10,7,14,8,22,0.00,1,,235
2013-7-21,93,83,73,75,73,70,94,76,55,29.99,29.95,29.88,10,9,0,15,6,20,0.72,3,,233
2013-7-22,89,80,71,79,74,72,100,88,62,29.96,29.89,29.82,10,7,0,14,2,23,0.57,2,,155
2013-7-23,93,85,77,75,74,72,89,74,49,29.82,29.74,29.69,10,10,7,13,5,20,0.00,1,,251
2013-7-24,93,84,75,75,73,72,94,75,49,29.86,29.77,29.70,10,9,3,7,3,,0.00,1,,331
2013-7-25,80,74,69,72,69,66,100,85,69,30.03,29.93,29.84,10,9,0,10,5,20,1.25,5,,15
2013-7-26,86,76,66,70,66,61,100,76,45,30.11,30.07,30.02,10,9,4,9,4,,0.00,1,,318
2013-7-27,87,78,69,70,67,63,88,71,49,30.09,30.03,29.97,10,10,10,10,5,20,0.00,0,,157
2013-7-28,89,81,73,75,71,66,94,75,58,30.01,29.96,29.92,10,10,4,10,5,,0.05,4,,171
2013-7-29,86,78,71,73,68,61,100,77,45,30.17,30.08,29.99,10,8,1,8,3,16,0.14,2,,349
2013-7-30,87,78,68,70,66,63,100,74,45,30.24,30.19,30.16,10,9,5,6,1,,0.00,2,,104
2013-7-31,84,76,69,72,69,66,94,81,62,30.17,30.13,30.06,10,9,2,10,4,,0.06,3,,175